Time;durP1;ratioP1;P1;durP2;ratioP2;P2;SDS_P1;SDS_P2;PMS_P1;PMS_P2;Temp;Humidity;BMP_temperature;BMP_pressure;BME280_temperature;BME280_humidity;BME280_pressure;Samples;Min_cycle;Max_cycle;Signal;HPM_P1;HPM_P2
2021/01/15 00:01:08;;;;;;;12.45;5.85;;;;;;;-0.70;82.12;100678.50;4998047;28;20451;-72
2021/01/15 00:03:37;;;;;;;8.60;5.47;;;;;;;-0.76;80.81;100679.38;4998195;28;20092;-71
2021/01/15 00:06:05;;;;;;;9.20;5.38;;;;;;;-0.69;81.13;100688.94;4998305;28;20050;-72
2021/01/15 00:08:40;;;;;;;12.98;5.63;;;;;;;-0.77;81.78;100687.28;4998042;28;20046;-72
2021/01/15 00:11:15;;;;;;;10.32;5.40;;;;;;;-0.73;81.45;100689.84;4998328;28;20046;-74
2021/01/15 00:13:41;;;;;;;9.18;5.13;;;;;;;-0.80;82.00;100697.75;4998459;28;20054;-73
2021/01/15 00:16:36;;;;;;;11.32;5.55;;;;;;;-0.77;81.52;100706.47;4997989;28;20058;-73
2021/01/15 00:19:02;;;;;;;12.18;5.40;;;;;;;-0.84;81.55;100707.38;4997973;28;20053;-74
2021/01/15 00:21:32;;;;;;;10.55;6.32;;;;;;;-0.92;81.70;100693.47;4998083;28;20105;-74
2021/01/15 00:24:01;;;;;;;13.77;5.20;;;;;;;-0.87;81.86;100713.50;4997024;28;20376;-73
2021/01/15 00:26:29;;;;;;;7.97;5.68;;;;;;;-0.90;81.19;100712.66;4997514;28;20515;-74
2021/01/15 00:28:56;;;;;;;14.07;6.28;;;;;;;-0.90;81.64;100725.75;4997737;28;20066;-72
2021/01/15 00:31:38;;;;;;;10.45;5.30;;;;;;;-0.93;81.99;100720.53;4997492;28;20062;-72
2021/01/15 00:34:07;;;;;;;10.80;4.97;;;;;;;-0.94;82.31;100716.19;4997225;28;20058;-75
2021/01/15 00:36:33;;;;;;;10.38;5.53;;;;;;;-0.98;81.57;100716.19;4997596;28;20050;-71
2021/01/15 00:39:00;;;;;;;7.82;4.97;;;;;;;-0.99;81.98;100717.06;4997753;28;20042;-76
2021/01/15 00:41:27;;;;;;;9.60;5.85;;;;;;;-1.00;82.32;100727.53;4997779;28;20143;-74
2021/01/15 00:43:53;;;;;;;13.57;6.32;;;;;;;-1.02;81.97;100726.69;4997428;28;20392;-72
2021/01/15 00:46:32;;;;;;;12.40;6.72;;;;;;;-0.99;82.50;100724.94;4997295;28;20436;-72
2021/01/15 00:49:06;;;;;;;10.68;6.00;;;;;;;-1.01;82.50;100731.03;4997462;28;20046;-73
2021/01/15 00:51:34;;;;;;;9.02;5.30;;;;;;;-1.04;81.76;100739.78;4997596;28;20050;-72
2021/01/15 00:54:00;;;;;;;9.10;5.68;;;;;;;-1.13;82.06;100731.97;4996620;28;20062;-75
2021/01/15 00:56:26;;;;;;;9.65;5.00;;;;;;;-1.03;81.88;100748.53;4997099;28;20189;-74
2021/01/15 00:58:53;;;;;;;8.80;5.30;;;;;;;-1.20;82.31;100735.50;4997164;28;20058;-73
2021/01/15 01:01:21;;;;;;;10.38;5.72;;;;;;;-1.08;82.15;100758.16;4996918;28;20054;-76
2021/01/15 01:03:49;;;;;;;12.32;5.20;;;;;;;-1.18;82.30;100755.56;5028986;28;20050;-74
2021/01/15 01:06:20;;;;;;;9.70;5.93;;;;;;;-1.12;82.79;100765.16;4996893;28;20058;-77
2021/01/15 01:08:46;;;;;;;;;;;;;;;-1.10;82.52;100760.75;4997314;28;20054;-72
2021/01/15 01:11:14;;;;;;;8.25;5.32;;;;;;;-1.17;81.83;100759.94;4997083;28;19976;-74
2021/01/15 01:13:41;;;;;;;9.10;4.93;;;;;;;-1.16;81.25;100766.00;4996873;28;20105;-75
2021/01/15 01:16:07;;;;;;;9.60;4.85;;;;;;;-1.14;82.89;100766.91;4997073;28;20425;-76
2021/01/15 01:18:35;;;;;;;8.13;4.90;;;;;;;-1.21;81.64;100757.31;4996060;28;20047;-76
2021/01/15 01:21:04;;;;;;;10.70;5.47;;;;;;;-1.21;82.59;100763.41;4997206;28;20056;-75
2021/01/15 01:23:30;;;;;;;9.95;5.05;;;;;;;-1.11;80.83;100769.50;4996914;28;20058;-75
2021/01/15 01:25:56;;;;;;;9.18;5.60;;;;;;;-1.26;81.98;100768.66;4996555;28;20058;-75
2021/01/15 01:28:22;;;;;;;10.25;5.32;;;;;;;-1.24;81.56;100787.88;5028139;28;20356;-71
2021/01/15 01:30:48;;;;;;;9.10;5.72;;;;;;;-1.22;82.41;100793.09;4996794;28;20062;-75
2021/01/15 01:33:15;;;;;;;11.32;5.80;;;;;;;-1.29;83.05;100792.25;4996597;28;20104;-73
2021/01/15 01:35:41;;;;;;;11.77;5.65;;;;;;;-1.25;82.21;100804.47;4996355;28;20046;-76
2021/01/15 01:38:07;;;;;;;11.38;6.07;;;;;;;-1.21;82.74;100807.94;4996658;28;20054;-74
2021/01/15 01:40:34;;;;;;;9.80;5.43;;;;;;;-1.27;82.40;100806.22;4996388;28;20046;-73
2021/01/15 01:43:00;;;;;;;8.85;5.35;;;;;;;-1.27;82.71;100803.59;4996304;28;20058;-71
2021/01/15 01:45:27;;;;;;;9.05;6.20;;;;;;;-1.27;82.68;100807.94;4995594;28;20060;-70
2021/01/15 01:47:54;;;;;;;10.27;5.85;;;;;;;-1.32;83.49;100810.59;4996237;28;20342;-75
2021/01/15 01:50:22;;;;;;;12.57;5.95;;;;;;;-1.32;82.85;100826.31;4996331;28;20054;-74
2021/01/15 01:52:48;;;;;;;12.32;6.15;;;;;;;-1.29;83.11;100834.16;4996288;28;20054;-75
2021/01/15 01:55:15;;;;;;;15.95;5.93;;;;;;;-1.30;82.73;100834.16;4996685;28;20094;-77
2021/01/15 01:57:41;;;;;;;10.88;5.95;;;;;;;-1.31;82.81;100833.28;4996288;28;20073;-75
2021/01/15 02:00:09;;;;;;;8.13;5.60;;;;;;;-1.29;82.76;100835.91;4996098;28;20092;-75
2021/01/15 02:02:35;;;;;;;14.98;5.57;;;;;;;-1.29;82.79;100841.13;4981374;28;20120;-73
2021/01/15 02:05:02;;;;;;;14.88;6.40;;;;;;;-1.34;82.57;100835.91;4976827;28;20056;-74
2021/01/15 02:07:30;;;;;;;13.68;5.75;;;;;;;-1.32;83.16;100849.00;4976458;28;20053;-76
2021/01/15 02:10:00;;;;;;;10.45;6.07;;;;;;;-1.35;83.49;100852.50;4975579;28;20055;-77
2021/01/15 02:12:47;;;;;;;;;;;;;;;-1.32;82.98;100852.50;4976890;28;20429;-76
2021/01/15 02:15:22;;;;;;;10.45;5.28;;;;;;;-1.35;83.15;100852.50;4976685;28;19922;-76
2021/01/15 02:17:56;;;;;;;10.95;6.38;;;;;;;-1.38;83.55;100858.63;4976491;28;20054;-76
2021/01/15 02:20:47;;;;;;;11.02;5.60;;;;;;;-1.37;83.07;100855.13;4976500;28;20190;-78
2021/01/15 02:23:36;;;;;;;14.32;5.70;;;;;;;-1.40;82.66;100854.25;4976643;28;20047;-75
2021/01/15 02:26:05;;;;;;;10.05;6.07;;;;;;;-1.44;83.80;100847.25;4976177;28;20070;-75
2021/01/15 02:28:50;;;;;;;8.45;5.50;;;;;;;-1.43;82.86;100851.59;4976487;28;20105;-79
2021/01/15 02:31:44;;;;;;;9.20;5.63;;;;;;;-1.46;83.71;100856.88;4976531;28;20129;-76
2021/01/15 02:34:48;;;;;;;11.63;6.20;;;;;;;-1.50;83.44;100861.22;4976610;28;20053;-77
2021/01/15 02:37:42;;;;;;;9.75;5.75;;;;;;;-1.57;83.91;100852.47;4976127;28;20141;-78
2021/01/15 02:40:19;;;;;;;11.25;5.95;;;;;;;-1.53;83.00;100872.56;4975307;28;20051;-76
2021/01/15 02:42:48;;;;;;;12.65;5.85;;;;;;;-1.59;83.90;100856.84;4976006;28;20436;-75
2021/01/15 02:45:15;;;;;;;10.43;6.22;;;;;;;-1.55;82.70;100874.31;4976274;28;20132;-74
2021/01/15 02:47:49;;;;;;;15.82;6.55;;;;;;;-1.51;84.26;100875.19;4976323;28;20106;-75
2021/01/15 02:50:19;;;;;;;10.38;6.13;;;;;;;-1.58;83.03;100890.00;4976181;28;20058;-74
2021/01/15 02:52:45;;;;;;;13.68;6.28;;;;;;;-1.62;83.74;100892.63;4975980;28;20059;-75
2021/01/15 02:55:13;;;;;;;11.25;6.45;;;;;;;-1.63;84.11;100894.38;4976238;28;20050;-76
2021/01/15 02:57:40;;;;;;;12.35;6.68;;;;;;;-1.58;84.34;100897.88;4977993;28;20058;-75
2021/01/15 03:00:09;;;;;;;10.35;6.30;;;;;;;-1.64;84.56;100892.63;4979877;28;20058;-74
2021/01/15 03:02:53;;;;;;;9.85;5.88;;;;;;;-1.64;83.57;100901.34;4994874;28;20066;-76
2021/01/15 03:05:21;;;;;;;11.40;6.00;;;;;;;-1.67;83.67;100900.47;5014931;28;20050;-75
2021/01/15 03:07:51;;;;;;;11.13;6.28;;;;;;;-1.66;83.69;100905.72;4997970;28;20411;-77
2021/01/15 03:10:24;;;;;;;10.50;6.38;;;;;;;-1.62;83.73;100918.81;5030743;28;20403;-75
2021/01/15 03:12:53;;;;;;;12.20;6.43;;;;;;;-1.76;83.12;100892.63;4999092;28;20054;-76
2021/01/15 03:15:20;;;;;;;11.55;6.53;;;;;;;-1.68;83.31;100920.53;4999130;28;20428;-75
2021/01/15 03:17:49;;;;;;;10.18;6.55;;;;;;;-1.63;83.87;100920.56;5030705;28;20590;-77
2021/01/15 03:20:16;;;;;;;13.63;6.95;;;;;;;-1.66;84.17;100925.78;4999031;28;20138;-77
2021/01/15 03:22:46;;;;;;;10.88;6.55;;;;;;;-1.61;83.01;100916.19;5030733;28;20392;-75
2021/01/15 03:25:13;;;;;;;8.48;6.28;;;;;;;-1.61;82.92;100923.16;4999053;28;20380;-75
2021/01/15 03:27:43;;;;;;;14.93;5.90;;;;;;;-1.45;83.36;100929.31;4997465;28;20065;-75
2021/01/15 03:30:11;;;;;;;11.40;6.85;;;;;;;-1.40;82.18;100933.69;4999071;28;20432;-74
2021/01/15 03:32:39;;;;;;;12.50;5.95;;;;;;;-1.42;81.95;100931.94;4999015;28;20058;-74
2021/01/15 03:35:06;;;;;;;12.20;6.22;;;;;;;-1.21;81.32;100933.69;4999104;28;20137;-71
2021/01/15 03:37:34;;;;;;;10.10;6.20;;;;;;;-1.20;81.19;100940.66;5030420;28;20047;-75
2021/01/15 03:40:01;;;;;;;12.02;6.38;;;;;;;-1.21;82.19;100938.91;4998681;28;20054;-74
2021/01/15 03:42:28;;;;;;;10.63;7.22;;;;;;;-1.12;81.20;100954.66;4998622;28;20085;-73
2021/01/15 03:44:54;;;;;;;19.13;7.35;;;;;;;-1.14;81.08;100959.00;5030454;28;20456;-78
2021/01/15 03:47:20;;;;;;;11.15;6.43;;;;;;;-1.07;81.36;100949.41;4998261;28;20352;-72
2021/01/15 03:49:46;;;;;;;14.88;7.20;;;;;;;-1.11;81.54;100948.53;4998532;28;20050;-77
2021/01/15 03:52:12;;;;;;;11.98;6.85;;;;;;;-1.01;81.31;100952.03;5030159;28;20436;-75
2021/01/15 03:54:38;;;;;;;14.00;7.88;;;;;;;-1.00;81.49;100947.66;4998567;28;20050;-79
2021/01/15 03:57:05;;;;;;;15.00;8.65;;;;;;;-0.99;81.64;100955.53;4998399;28;20065;-75
2021/01/15 03:59:31;;;;;;;14.73;8.70;;;;;;;-0.98;82.36;100954.63;4996969;28;20046;-74
2021/01/15 04:01:57;;;;;;;13.85;9.23;;;;;;;-0.98;82.64;100954.63;5023357;28;20054;-77
2021/01/15 04:04:24;;;;;;;15.63;10.57;;;;;;;-0.89;82.51;100950.25;4998337;28;20129;-75
2021/01/15 04:06:50;;;;;;;19.30;10.65;;;;;;;-0.84;83.34;100949.41;4998205;28;20055;-74
2021/01/15 04:09:16;;;;;;;18.65;11.30;;;;;;;-0.83;83.29;100952.88;4997350;28;20054;-75
2021/01/15 04:11:42;;;;;;;18.27;11.60;;;;;;;-0.79;83.24;100959.88;4998060;28;20459;-76
2021/01/15 04:14:08;;;;;;;21.38;12.60;;;;;;;-0.87;83.96;100945.91;4997929;28;20104;-73
2021/01/15 04:16:34;;;;;;;21.10;12.43;;;;;;;-0.79;83.81;100961.59;4980825;28;20054;-75
2021/01/15 04:19:00;;;;;;;22.60;12.35;;;;;;;-0.84;83.79;100953.75;4997987;28;20349;-77
2021/01/15 04:21:27;;;;;;;23.17;12.02;;;;;;;-0.79;83.81;100972.97;4997892;28;20527;-76
2021/01/15 04:23:53;;;;;;;19.38;11.82;;;;;;;-0.79;83.53;100972.97;4998020;28;20061;-74
2021/01/15 04:26:20;;;;;;;23.45;12.63;;;;;;;-0.89;83.92;100961.63;4997884;28;20066;-77
2021/01/15 04:28:47;;;;;;;19.80;12.25;;;;;;;-0.80;83.77;100971.25;4996859;28;20502;-77
2021/01/15 04:31:18;;;;;;;23.60;13.05;;;;;;;-0.83;83.84;100974.72;4997873;28;20348;-75
2021/01/15 04:33:45;;;;;;;19.77;12.73;;;;;;;-0.73;83.69;100988.72;4997734;28;20405;-77
2021/01/15 04:36:12;;;;;;;20.17;12.75;;;;;;;-0.74;83.35;100979.09;4997608;28;20054;-74
2021/01/15 04:38:40;;;;;;;20.92;13.07;;;;;;;-0.73;84.26;100990.44;4997503;28;20344;-75
2021/01/15 04:41:07;;;;;;;20.20;12.80;;;;;;;-0.71;84.13;100989.56;4996886;28;20062;-76
2021/01/15 04:43:35;;;;;;;19.60;12.52;;;;;;;-0.77;84.30;100986.94;4997382;28;20534;-73
2021/01/15 04:46:03;;;;;;;20.70;12.32;;;;;;;-0.81;83.75;100990.47;4997704;28;20456;-72
2021/01/15 04:48:33;;;;;;;23.25;13.27;;;;;;;-0.73;83.41;100999.19;4997533;28;20055;-74
2021/01/15 04:51:00;;;;;;;24.58;13.27;;;;;;;-0.72;84.03;101006.19;4996336;28;20494;-78
2021/01/15 04:53:28;;;;;;;23.20;12.27;;;;;;;-0.69;83.51;101008.78;4997234;28;20054;-72
2021/01/15 04:55:58;;;;;;;21.38;12.68;;;;;;;-0.70;83.56;101009.66;4996228;28;20138;-76
2021/01/15 04:58:32;;;;;;;21.48;12.60;;;;;;;-0.80;83.65;101007.94;4997549;28;20054;-75
2021/01/15 05:00:59;;;;;;;20.55;12.32;;;;;;;-0.73;83.80;101025.41;4997201;28;20054;-74
2021/01/15 05:03:26;;;;;;;23.90;12.75;;;;;;;-0.88;83.63;101004.44;4997283;28;20109;-76
2021/01/15 05:06:00;;;;;;;20.90;12.95;;;;;;;-0.73;83.96;101030.66;5028732;28;20051;-77
2021/01/15 05:08:28;;;;;;;23.25;13.60;;;;;;;-0.71;83.29;101034.13;5028454;28;20050;-75
2021/01/15 05:10:55;;;;;;;21.55;13.63;;;;;;;-0.71;83.00;101030.66;4996938;28;20053;-74
2021/01/15 05:13:22;;;;;;;21.35;12.73;;;;;;;-0.82;83.56;101014.91;4996974;28;20065;-77
2021/01/15 05:15:50;;;;;;;21.25;12.98;;;;;;;-0.67;83.36;101028.91;4997211;28;20428;-75
2021/01/15 05:18:18;;;;;;;21.20;12.90;;;;;;;-0.68;83.78;101033.28;5028638;28;20066;-74
2021/01/15 05:20:45;;;;;;;20.10;12.55;;;;;;;-0.69;83.37;101024.50;4996747;28;20057;-73
2021/01/15 05:23:11;;;;;;;24.00;14.77;;;;;;;-0.69;83.28;101042.88;4996627;28;20065;-74
2021/01/15 05:25:44;;;;;;;22.08;12.82;;;;;;;-0.65;83.19;101046.34;4996549;28;20053;-76
2021/01/15 05:28:11;;;;;;;21.83;13.38;;;;;;;-0.67;83.67;101044.66;4997007;28;20047;-75
2021/01/15 05:30:38;;;;;;;25.88;13.98;;;;;;;-0.70;82.92;101035.03;4996733;28;20057;-75
2021/01/15 05:33:11;;;;;;;22.27;13.18;;;;;;;-0.66;83.21;101047.25;5027929;28;20068;-78
2021/01/15 05:35:43;;;;;;;22.27;12.75;;;;;;;-0.58;83.23;101049.88;4996363;28;20051;-74
2021/01/15 05:38:12;;;;;;;21.65;13.15;;;;;;;-0.59;83.07;101042.88;4996816;28;20046;-75
2021/01/15 05:40:40;;;;;;;21.88;13.82;;;;;;;-0.55;82.59;101047.22;4996713;28;20046;-74
2021/01/15 05:43:17;;;;;;;20.35;12.30;;;;;;;-0.57;82.89;101054.25;4996253;28;20483;-77
2021/01/15 05:46:04;;;;;;;19.08;12.20;;;;;;;-0.56;82.84;101056.88;5027409;28;20349;-77
2021/01/15 05:48:31;;;;;;;19.35;12.63;;;;;;;-0.58;82.89;101050.75;4996165;28;20445;-75
2021/01/15 05:50:57;;;;;;;21.38;12.50;;;;;;;-0.59;82.84;101075.22;4996131;28;20046;-74
2021/01/15 05:53:23;;;;;;;19.88;13.13;;;;;;;-0.52;82.74;101067.34;4995513;28;20112;-73
2021/01/15 05:55:54;;;;;;;22.77;11.77;;;;;;;-0.49;82.73;101081.31;4996232;28;20086;-72
2021/01/15 05:58:21;;;;;;;24.48;13.13;;;;;;;-0.57;82.52;101069.97;4996351;28;20492;-76
2021/01/15 06:00:51;;;;;;;19.65;12.05;;;;;;;-0.55;81.94;101081.31;4996004;28;20046;-74
2021/01/15 06:03:18;;;;;;;23.55;12.55;;;;;;;-0.47;82.65;101084.84;4996505;28;20054;-75
2021/01/15 06:05:49;;;;;;;18.50;11.90;;;;;;;-0.51;83.27;101077.84;4996291;28;20121;-73
2021/01/15 06:08:15;;;;;;;;;;;;;;;-0.46;83.24;101093.56;4997122;28;20043;-76
2021/01/15 06:10:43;;;;;;;24.30;12.30;;;;;;;-0.54;83.27;101096.22;4996202;28;19928;-74
2021/01/15 06:13:10;;;;;;;19.27;12.50;;;;;;;-0.66;82.85;101070.84;4996263;28;20191;-73
2021/01/15 06:15:47;;;;;;;21.55;13.18;;;;;;;-0.76;83.09;101059.47;4996264;28;20066;-76
2021/01/15 06:18:17;;;;;;;19.88;12.25;;;;;;;-0.58;84.02;101087.47;4996031;28;20061;-75
2021/01/15 06:20:45;;;;;;;19.50;11.80;;;;;;;-0.40;83.25;101108.44;5027233;28;20054;-75
2021/01/15 06:23:13;;;;;;;22.20;12.18;;;;;;;-0.42;82.85;101114.53;4995862;28;20058;-72
2021/01/15 06:25:57;;;;;;;23.20;12.43;;;;;;;-0.59;83.29;101090.09;4995624;28;20050;-74
2021/01/15 06:28:33;;;;;;;19.88;11.75;;;;;;;-0.57;82.55;101090.94;4995003;28;20076;-73
2021/01/15 06:31:04;;;;;;;17.73;11.35;;;;;;;-0.39;82.97;101116.28;4996431;28;20058;-72
2021/01/15 06:33:30;;;;;;;20.45;12.48;;;;;;;-0.43;82.62;101115.44;4995620;28;20169;-75
2021/01/15 06:35:56;;;;;;;17.50;12.23;;;;;;;-0.53;81.87;101111.06;4993594;28;20046;-74
2021/01/15 06:38:28;;;;;;;20.52;12.13;;;;;;;-0.49;82.79;101123.28;4992823;28;20153;-71
2021/01/15 06:40:55;;;;;;;23.77;12.20;;;;;;;-0.48;82.49;101117.16;4993983;28;20646;-71
2021/01/15 06:43:33;;;;;;;20.60;12.55;;;;;;;-0.54;82.98;101132.94;4994271;28;20097;-72
2021/01/15 06:46:04;;;;;;;19.58;12.05;;;;;;;-0.53;82.68;101131.16;4992836;28;20054;-74
2021/01/15 06:48:35;;;;;;;;;;;;;;;-0.48;82.54;101145.16;4993132;28;20495;-73
2021/01/15 06:51:02;;;;;;;22.33;12.85;;;;;;;-0.53;82.22;101134.66;4993836;28;19928;-74
2021/01/15 06:53:34;;;;;;;21.70;12.93;;;;;;;-0.57;83.10;101132.91;5025963;28;20061;-73
2021/01/15 06:56:04;;;;;;;20.45;12.30;;;;;;;-0.60;83.67;101138.16;4993773;28;20118;-72
2021/01/15 06:58:38;;;;;;;27.23;12.85;;;;;;;-0.48;83.08;101151.25;4995874;28;20089;-73
2021/01/15 07:01:21;;;;;;;19.02;12.82;;;;;;;-0.46;83.32;101152.16;4991924;28;20077;-71
2021/01/15 07:03:53;;;;;;;20.33;12.30;;;;;;;-0.42;83.38;101160.91;4975097;28;20133;-74
2021/01/15 07:06:31;;;;;;;18.77;12.65;;;;;;;-0.42;83.31;101151.25;4983734;28;20050;-74
2021/01/15 07:09:00;;;;;;;24.75;12.30;;;;;;;-0.43;82.69;101160.00;4995658;28;20050;-73
2021/01/15 07:11:30;;;;;;;20.42;12.07;;;;;;;-0.40;82.75;101156.53;4994831;28;20105;-72
2021/01/15 07:13:59;;;;;;;22.00;12.18;;;;;;;-0.33;82.84;101162.66;4995715;28;20058;-72
2021/01/15 07:16:37;;;;;;;21.63;14.23;;;;;;;-0.43;83.38;101167.88;5010290;28;20125;-73
2021/01/15 07:19:12;;;;;;;21.90;14.07;;;;;;;-0.44;83.51;101174.00;5026145;28;20116;-73
2021/01/15 07:21:55;;;;;;;20.73;12.85;;;;;;;-0.48;83.67;101167.00;4995093;28;20125;-72
2021/01/15 07:24:27;;;;;;;21.33;13.18;;;;;;;-0.44;83.95;101178.41;4994105;28;20057;-71
2021/01/15 07:26:57;;;;;;;19.33;12.60;;;;;;;-0.44;83.31;101184.50;4995040;28;20058;-72
2021/01/15 07:29:25;;;;;;;16.95;11.98;;;;;;;-0.38;83.64;101181.00;5010500;28;20050;-72
2021/01/15 07:32:02;;;;;;;24.02;13.40;;;;;;;-0.49;83.66;101177.50;4995397;28;20054;-72
2021/01/15 07:34:31;;;;;;;21.33;13.52;;;;;;;-0.48;84.56;101190.59;4994763;28;20050;-71
2021/01/15 07:36:57;;;;;;;23.98;14.82;;;;;;;-0.50;84.66;101199.38;4994844;28;20134;-71
2021/01/15 07:39:23;;;;;;;23.00;14.52;;;;;;;-0.57;84.63;101188.88;4994705;28;20046;-74
2021/01/15 07:41:55;;;;;;;24.17;14.90;;;;;;;-0.47;84.64;101194.13;4994990;28;20639;-74
2021/01/15 07:44:21;;;;;;;26.35;15.55;;;;;;;-0.38;84.54;101211.63;4994906;28;20081;-71
2021/01/15 07:46:59;;;;;;;24.38;14.60;;;;;;;-0.42;84.67;101206.34;4998082;28;20054;-74
2021/01/15 07:49:42;;;;;;;22.92;14.25;;;;;;;-0.35;84.83;101215.13;5013576;28;20043;-73
2021/01/15 07:52:09;;;;;;;24.20;14.77;;;;;;;-0.31;84.90;101216.00;4998546;28;20330;-74
2021/01/15 07:54:45;;;;;;;27.65;16.02;;;;;;;-0.32;85.02;101228.22;4997748;28;20061;-72
2021/01/15 07:57:12;;;;;;;23.13;15.07;;;;;;;-0.34;85.10;101223.84;4998255;28;20105;-70
2021/01/15 07:59:39;;;;;;;26.42;16.20;;;;;;;-0.35;85.26;101228.22;5029763;28;20185;-71
2021/01/15 08:02:05;;;;;;;25.77;16.48;;;;;;;-0.51;85.47;101211.59;4987880;28;20055;-73
2021/01/15 08:04:31;;;;;;;25.75;16.30;;;;;;;-0.31;85.77;101242.22;5010236;28;20419;-72
2021/01/15 08:07:34;;;;;;;24.42;15.38;;;;;;;-0.26;85.16;101242.22;4978797;28;20109;-73
2021/01/15 08:10:01;;;;;;;24.17;15.95;;;;;;;-0.22;84.89;101246.63;4978935;28;20065;-72
2021/01/15 08:12:36;;;;;;;25.95;16.80;;;;;;;-0.26;85.52;101244.84;4977555;28;20070;-72
2021/01/15 08:15:03;;;;;;;26.92;17.25;;;;;;;-0.30;85.12;101244.88;4978812;28;20073;-72
2021/01/15 08:17:30;;;;;;;27.52;16.17;;;;;;;-0.18;84.90;101257.13;5009818;28;20058;-70
2021/01/15 08:19:58;;;;;;;26.63;16.67;;;;;;;-0.18;84.96;101265.00;4978652;28;20069;-71
2021/01/15 08:22:26;;;;;;;23.13;15.10;;;;;;;-0.16;85.42;101265.00;4975195;28;20693;-73
2021/01/15 08:24:52;;;;;;;26.77;16.33;;;;;;;-0.27;85.41;101257.13;4978364;28;20058;-75
2021/01/15 08:27:20;;;;;;;27.42;16.77;;;;;;;-0.25;85.84;101263.22;4997106;28;20054;-75
2021/01/15 08:29:48;;;;;;;28.23;16.00;;;;;;;-0.25;85.49;101278.09;4997440;28;20050;-73
2021/01/15 08:32:17;;;;;;;25.98;17.42;;;;;;;-0.24;85.74;101280.72;4997804;28;20391;-70
2021/01/15 08:34:44;;;;;;;25.63;16.85;;;;;;;-0.21;85.80;101285.09;4997708;28;20054;-72
2021/01/15 08:37:15;;;;;;;29.15;17.60;;;;;;;-0.09;86.03;101289.50;4996943;28;20057;-73
2021/01/15 08:39:50;;;;;;;32.13;18.25;;;;;;;-0.19;86.03;101284.22;4996656;28;20050;-74
2021/01/15 08:42:17;;;;;;;28.92;16.65;;;;;;;-0.13;85.83;101293.84;4997580;28;20055;-72
2021/01/15 08:44:47;;;;;;;27.70;17.63;;;;;;;-0.11;85.63;101291.25;4997743;28;20433;-70
2021/01/15 08:47:15;;;;;;;25.00;16.80;;;;;;;-0.04;85.50;101298.25;4997712;28;20059;-71
2021/01/15 08:49:54;;;;;;;32.80;16.80;;;;;;;-0.11;86.32;101312.25;4996586;28;20051;-73
2021/01/15 08:52:26;;;;;;;28.23;17.33;;;;;;;-0.06;86.41;101307.88;4997531;28;20058;-75
2021/01/15 08:54:53;;;;;;;25.67;16.92;;;;;;;0.02;85.65;101323.63;4997437;28;20054;-70
2021/01/15 08:57:24;;;;;;;29.48;19.23;;;;;;;-0.05;85.68;101317.50;4997560;28;20681;-72
2021/01/15 08:59:51;;;;;;;27.23;17.33;;;;;;;-0.08;86.46;101328.88;4997550;28;20049;-72
2021/01/15 09:02:18;;;;;;;27.70;17.77;;;;;;;-0.06;86.19;101315.75;4997407;28;20062;-70
2021/01/15 09:04:45;;;;;;;30.90;18.55;;;;;;;-0.06;86.09;101331.50;4996365;28;20065;-73
2021/01/15 09:07:12;;;;;;;31.88;19.23;;;;;;;-0.08;86.77;101338.47;4997577;28;20058;-69
2021/01/15 09:09:39;;;;;;;29.15;18.80;;;;;;;-0.06;86.87;101337.59;4997200;28;20061;-72
2021/01/15 09:12:08;;;;;;;30.98;19.15;;;;;;;-0.11;87.13;101343.72;4997186;28;20050;-70
2021/01/15 09:14:38;;;;;;;30.88;19.33;;;;;;;-0.05;86.82;101344.59;4997118;28;20069;-72
2021/01/15 09:17:06;;;;;;;30.15;19.42;;;;;;;0.01;86.83;101349.00;4996986;28;20050;-69
2021/01/15 09:19:34;;;;;;;32.95;20.27;;;;;;;0.16;86.32;101353.41;4997965;28;20046;-75
2021/01/15 09:22:04;;;;;;;30.35;19.48;;;;;;;0.18;85.92;101362.16;5000517;28;20496;-70
2021/01/15 09:24:31;;;;;;;28.92;19.13;;;;;;;0.10;86.42;101372.66;4997581;28;20050;-73
2021/01/15 09:26:59;;;;;;;35.95;19.92;;;;;;;0.12;86.38;101370.88;4994921;28;20057;-72
2021/01/15 09:29:26;;;;;;;32.88;19.75;;;;;;;0.09;86.38;101373.53;4996730;28;20047;-73
2021/01/15 09:31:53;;;;;;;31.83;20.25;;;;;;;-0.04;86.62;101383.09;4996794;28;20142;-72
2021/01/15 09:34:22;;;;;;;39.88;21.80;;;;;;;-0.02;87.35;101385.75;4996873;28;20046;-74
2021/01/15 09:36:49;;;;;;;36.30;20.90;;;;;;;0.03;87.02;101389.25;4996571;28;20050;-74
2021/01/15 09:39:17;;;;;;;36.72;21.42;;;;;;;-0.14;87.43;101370.84;4996666;28;20077;-71
2021/01/15 09:41:44;;;;;;;33.10;20.52;;;;;;;0.10;86.99;101396.28;4996345;28;20073;-70
2021/01/15 09:44:16;;;;;;;31.40;20.92;;;;;;;0.11;86.80;101398.03;4996601;28;20133;-73
2021/01/15 09:46:43;;;;;;;36.90;22.70;;;;;;;0.15;87.11;101398.03;4995958;28;20050;-73
2021/01/15 09:49:10;;;;;;;37.33;20.92;;;;;;;0.09;86.73;101393.63;5027647;28;20078;-74
2021/01/15 09:51:36;;;;;;;37.55;21.48;;;;;;;0.21;86.89;101398.91;4996305;28;20054;-71
2021/01/15 09:54:03;;;;;;;35.25;21.67;;;;;;;0.03;86.72;101391.88;4995276;28;20062;-76
2021/01/15 09:56:31;;;;;;;36.13;22.40;;;;;;;0.17;86.58;101410.31;5028261;28;20054;-71
2021/01/15 09:58:59;;;;;;;35.28;21.45;;;;;;;0.25;86.38;101407.69;4996260;28;20061;-71
2021/01/15 10:01:26;;;;;;;36.33;22.63;;;;;;;0.23;86.63;101412.91;4996268;28;20440;-75
2021/01/15 10:03:56;;;;;;;31.65;20.85;;;;;;;0.16;86.60;101386.66;4995009;28;20413;-74
2021/01/15 10:06:24;;;;;;;36.88;23.40;;;;;;;0.20;86.62;101404.16;4995685;28;20146;-75
2021/01/15 10:08:50;;;;;;;40.53;25.00;;;;;;;0.36;86.29;101419.09;4995721;28;20046;-74
2021/01/15 10:11:27;;;;;;;38.88;24.80;;;;;;;0.32;86.36;101417.31;5024661;28;20058;-73
2021/01/15 10:13:56;;;;;;;40.72;25.30;;;;;;;0.34;86.67;101423.47;4996028;28;20054;-72
2021/01/15 10:16:23;;;;;;;46.90;27.25;;;;;;;0.23;86.75;101426.03;4999065;28;20053;-74
2021/01/15 10:18:51;;;;;;;46.17;25.52;;;;;;;0.31;86.95;101415.56;4995958;28;20054;-70
2021/01/15 10:21:28;;;;;;;41.60;26.40;;;;;;;0.26;86.53;101412.06;4994587;28;20058;-73
2021/01/15 10:23:58;;;;;;;44.58;29.30;;;;;;;0.12;86.91;101431.28;4995689;28;20332;-72
2021/01/15 10:26:25;;;;;;;49.92;28.65;;;;;;;0.20;86.49;101436.56;5027051;28;20146;-75
2021/01/15 10:29:13;;;;;;;41.25;26.33;;;;;;;0.29;86.32;101433.09;5092727;27;20343;-74
2021/01/15 10:31:43;;;;;;;49.60;27.13;;;;;;;0.27;86.64;101440.06;5093122;28;20052;-75
2021/01/15 10:34:11;;;;;;;40.88;26.17;;;;;;;0.24;86.46;101446.22;5092052;28;20135;-73
2021/01/15 10:36:41;;;;;;;39.25;24.45;;;;;;;0.29;86.87;101454.09;5093090;28;20388;-74
2021/01/15 10:39:08;;;;;;;39.10;25.87;;;;;;;0.24;86.52;101453.19;5091785;28;20052;-77
2021/01/15 10:41:38;;;;;;;39.92;24.65;;;;;;;0.31;86.44;101465.47;5093092;28;20052;-73
2021/01/15 10:44:06;;;;;;;41.35;24.38;;;;;;;0.33;86.28;101461.09;5092860;28;20048;-76
2021/01/15 10:46:41;;;;;;;39.67;25.33;;;;;;;0.24;86.48;101455.81;5093508;28;20052;-75
2021/01/15 10:49:09;;;;;;;39.42;24.23;;;;;;;0.30;86.28;101461.09;5092288;28;20164;-74
2021/01/15 10:51:43;;;;;;;42.33;26.02;;;;;;;0.14;86.16;101428.66;5088634;28;20048;-75
2021/01/15 10:54:10;;;;;;;44.92;26.92;;;;;;;0.26;86.50;101460.22;5083113;28;20068;-73
2021/01/15 10:56:38;;;;;;;39.72;26.40;;;;;;;0.22;86.82;101454.94;5080124;28;20091;-74
2021/01/15 10:59:05;;;;;;;43.03;25.05;;;;;;;0.20;86.26;101454.03;5073419;28;20082;-75
2021/01/15 11:01:39;;;;;;;41.65;26.95;;;;;;;0.26;86.92;101459.31;5077190;28;20048;-72
2021/01/15 11:04:06;;;;;;;40.95;26.00;;;;;;;0.23;86.95;101462.81;5078738;28;20059;-72
2021/01/15 11:06:36;;;;;;;49.65;27.40;;;;;;;0.22;87.02;101468.09;5076958;28;20123;-73
2021/01/15 11:09:07;;;;;;;39.28;24.55;;;;;;;0.26;86.98;101459.31;5081261;28;20079;-74
2021/01/15 11:11:53;;;;;;;42.83;26.40;;;;;;;0.23;86.83;101465.44;5077402;28;20452;-74
2021/01/15 11:14:20;;;;;;;40.05;24.70;;;;;;;0.35;86.61;101464.63;5080619;28;20521;-72
2021/01/15 11:16:46;;;;;;;39.45;23.48;;;;;;;0.37;86.54;101469.84;5082162;28;20056;-72
2021/01/15 11:19:13;;;;;;;37.60;24.35;;;;;;;0.37;86.18;101473.38;5078239;28;20445;-72
2021/01/15 11:21:39;;;;;;;39.30;25.30;;;;;;;0.45;86.55;101469.88;5080118;28;20060;-72
2021/01/15 11:24:12;;;;;;;38.58;24.85;;;;;;;0.52;86.28;101477.78;5082341;28;20059;-74
2021/01/15 11:26:39;;;;;;;39.50;25.25;;;;;;;0.46;86.38;101479.50;5080168;28;20052;-72